sensor_id;sensor_type;location;lat;lon;timestamp;P1;durP1;ratioP1;P2;durP2;ratioP2
28483;SDS011;15704;48.834;8.736;2024-03-08T00:00:09;6.10;;;4.57;;
28483;SDS011;15704;48.834;8.736;2024-03-08T00:02:41;7.68;;;4.80;;
28483;SDS011;15704;48.834;8.736;2024-03-08T00:05:09;6.07;;;4.50;;
28483;SDS011;15704;48.834;8.736;2024-03-08T00:07:36;6.03;;;4.63;;
28483;SDS011;15704;48.834;8.736;2024-03-08T00:10:07;5.28;;;4.53;;
28483;SDS011;15704;48.834;8.736;2024-03-08T00:12:41;5.63;;;4.20;;
28483;SDS011;15704;48.834;8.736;2024-03-08T00:15:09;6.18;;;4.57;;
28483;SDS011;15704;48.834;8.736;2024-03-08T00:17:37;5.50;;;4.22;;
28483;SDS011;15704;48.834;8.736;2024-03-08T00:20:04;6.85;;;4.90;;
28483;SDS011;15704;48.834;8.736;2024-03-08T00:22:34;5.78;;;4.53;;
28483;SDS011;15704;48.834;8.736;2024-03-08T00:25:05;5.03;;;4.22;;
28483;SDS011;15704;48.834;8.736;2024-03-08T00:27:35;7.35;;;4.63;;
28483;SDS011;15704;48.834;8.736;2024-03-08T00:30:03;5.13;;;4.30;;
28483;SDS011;15704;48.834;8.736;2024-03-08T00:32:30;7.10;;;4.80;;
28483;SDS011;15704;48.834;8.736;2024-03-08T00:34:58;6.53;;;4.57;;
28483;SDS011;15704;48.834;8.736;2024-03-08T00:37:25;6.07;;;4.63;;
28483;SDS011;15704;48.834;8.736;2024-03-08T00:39:52;7.03;;;5.22;;
28483;SDS011;15704;48.834;8.736;2024-03-08T00:42:20;6.53;;;4.65;;
28483;SDS011;15704;48.834;8.736;2024-03-08T00:44:47;7.25;;;5.20;;
28483;SDS011;15704;48.834;8.736;2024-03-08T00:47:18;6.38;;;4.32;;
28483;SDS011;15704;48.834;8.736;2024-03-08T00:49:45;7.32;;;4.70;;
28483;SDS011;15704;48.834;8.736;2024-03-08T00:52:13;6.32;;;4.72;;
28483;SDS011;15704;48.834;8.736;2024-03-08T00:54:40;6.70;;;4.75;;
28483;SDS011;15704;48.834;8.736;2024-03-08T00:57:09;6.78;;;5.07;;
28483;SDS011;15704;48.834;8.736;2024-03-08T00:59:39;6.15;;;4.57;;
28483;SDS011;15704;48.834;8.736;2024-03-08T01:02:06;6.00;;;4.50;;
28483;SDS011;15704;48.834;8.736;2024-03-08T01:04:35;5.35;;;4.22;;
28483;SDS011;15704;48.834;8.736;2024-03-08T01:07:02;17.85;;;4.70;;
28483;SDS011;15704;48.834;8.736;2024-03-08T01:09:28;5.55;;;4.57;;
28483;SDS011;15704;48.834;8.736;2024-03-08T01:11:55;5.60;;;4.63;;
28483;SDS011;15704;48.834;8.736;2024-03-08T01:14:23;5.88;;;4.15;;
28483;SDS011;15704;48.834;8.736;2024-03-08T01:16:52;5.47;;;4.63;;
28483;SDS011;15704;48.834;8.736;2024-03-08T01:19:19;5.60;;;4.20;;
28483;SDS011;15704;48.834;8.736;2024-03-08T01:21:46;5.82;;;4.63;;
28483;SDS011;15704;48.834;8.736;2024-03-08T01:24:12;6.65;;;4.50;;
28483;SDS011;15704;48.834;8.736;2024-03-08T01:26:39;5.75;;;4.28;;
28483;SDS011;15704;48.834;8.736;2024-03-08T01:29:06;4.90;;;4.15;;
28483;SDS011;15704;48.834;8.736;2024-03-08T01:31:34;5.43;;;4.15;;
28483;SDS011;15704;48.834;8.736;2024-03-08T01:34:03;5.28;;;4.43;;
28483;SDS011;15704;48.834;8.736;2024-03-08T01:36:30;6.40;;;4.88;;
28483;SDS011;15704;48.834;8.736;2024-03-08T01:38:56;9.73;;;4.95;;
28483;SDS011;15704;48.834;8.736;2024-03-08T01:41:24;6.88;;;4.60;;
28483;SDS011;15704;48.834;8.736;2024-03-08T01:43:50;6.43;;;4.75;;
28483;SDS011;15704;48.834;8.736;2024-03-08T01:46:19;6.15;;;4.63;;
28483;SDS011;15704;48.834;8.736;2024-03-08T01:48:51;4.55;;;3.83;;
28483;SDS011;15704;48.834;8.736;2024-03-08T01:51:19;6.10;;;4.95;;
28483;SDS011;15704;48.834;8.736;2024-03-08T01:53:47;5.32;;;4.15;;
28483;SDS011;15704;48.834;8.736;2024-03-08T01:56:14;6.70;;;4.80;;
28483;SDS011;15704;48.834;8.736;2024-03-08T01:58:42;5.05;;;4.10;;
28483;SDS011;15704;48.834;8.736;2024-03-08T02:01:13;6.38;;;4.50;;
28483;SDS011;15704;48.834;8.736;2024-03-08T02:03:43;6.75;;;4.80;;
28483;SDS011;15704;48.834;8.736;2024-03-08T02:06:12;6.68;;;5.00;;
28483;SDS011;15704;48.834;8.736;2024-03-08T02:08:44;5.47;;;4.18;;
28483;SDS011;15704;48.834;8.736;2024-03-08T02:11:12;5.60;;;4.38;;
28483;SDS011;15704;48.834;8.736;2024-03-08T02:13:39;5.78;;;4.03;;
28483;SDS011;15704;48.834;8.736;2024-03-08T02:16:06;6.75;;;4.45;;
28483;SDS011;15704;48.834;8.736;2024-03-08T02:18:35;5.25;;;4.40;;
28483;SDS011;15704;48.834;8.736;2024-03-08T02:21:03;6.90;;;4.60;;
28483;SDS011;15704;48.834;8.736;2024-03-08T02:23:32;5.90;;;4.65;;
28483;SDS011;15704;48.834;8.736;2024-03-08T02:25:59;5.85;;;4.30;;
28483;SDS011;15704;48.834;8.736;2024-03-08T02:28:26;5.20;;;4.00;;
28483;SDS011;15704;48.834;8.736;2024-03-08T02:30:54;5.20;;;4.18;;
28483;SDS011;15704;48.834;8.736;2024-03-08T02:33:23;5.28;;;4.10;;
28483;SDS011;15704;48.834;8.736;2024-03-08T02:35:51;5.70;;;4.05;;
28483;SDS011;15704;48.834;8.736;2024-03-08T02:38:19;6.03;;;4.40;;
28483;SDS011;15704;48.834;8.736;2024-03-08T02:40:48;5.82;;;4.32;;
28483;SDS011;15704;48.834;8.736;2024-03-08T02:43:16;5.53;;;4.57;;
28483;SDS011;15704;48.834;8.736;2024-03-08T02:45:44;5.50;;;4.25;;
28483;SDS011;15704;48.834;8.736;2024-03-08T02:48:15;5.88;;;4.45;;
28483;SDS011;15704;48.834;8.736;2024-03-08T02:50:45;5.35;;;4.43;;
28483;SDS011;15704;48.834;8.736;2024-03-08T02:53:12;6.03;;;4.47;;
28483;SDS011;15704;48.834;8.736;2024-03-08T02:55:40;5.68;;;4.10;;
28483;SDS011;15704;48.834;8.736;2024-03-08T02:58:08;5.88;;;4.72;;
28483;SDS011;15704;48.834;8.736;2024-03-08T03:00:37;6.53;;;4.43;;
28483;SDS011;15704;48.834;8.736;2024-03-08T03:03:05;4.85;;;3.63;;
28483;SDS011;15704;48.834;8.736;2024-03-08T03:05:33;5.28;;;4.10;;
28483;SDS011;15704;48.834;8.736;2024-03-08T03:08:00;6.00;;;4.40;;
28483;SDS011;15704;48.834;8.736;2024-03-08T03:10:27;5.78;;;4.60;;
28483;SDS011;15704;48.834;8.736;2024-03-08T03:12:54;5.57;;;4.20;;
28483;SDS011;15704;48.834;8.736;2024-03-08T03:15:21;5.40;;;4.32;;
28483;SDS011;15704;48.834;8.736;2024-03-08T03:17:52;5.55;;;3.90;;
28483;SDS011;15704;48.834;8.736;2024-03-08T03:20:19;6.68;;;4.25;;
28483;SDS011;15704;48.834;8.736;2024-03-08T03:22:53;4.22;;;3.67;;
28483;SDS011;15704;48.834;8.736;2024-03-08T03:25:20;4.75;;;3.90;;
28483;SDS011;15704;48.834;8.736;2024-03-08T03:27:52;4.85;;;3.97;;
28483;SDS011;15704;48.834;8.736;2024-03-08T03:30:23;7.35;;;4.25;;
28483;SDS011;15704;48.834;8.736;2024-03-08T03:32:53;5.93;;;4.35;;
28483;SDS011;15704;48.834;8.736;2024-03-08T03:35:27;5.13;;;3.83;;
28483;SDS011;15704;48.834;8.736;2024-03-08T03:37:55;5.47;;;4.32;;
28483;SDS011;15704;48.834;8.736;2024-03-08T03:40:31;6.45;;;4.03;;
28483;SDS011;15704;48.834;8.736;2024-03-08T03:42:58;5.00;;;3.83;;
28483;SDS011;15704;48.834;8.736;2024-03-08T03:45:25;5.85;;;4.22;;
28483;SDS011;15704;48.834;8.736;2024-03-08T03:47:52;6.70;;;4.75;;
28483;SDS011;15704;48.834;8.736;2024-03-08T03:50:19;6.50;;;4.47;;
28483;SDS011;15704;48.834;8.736;2024-03-08T03:52:49;6.15;;;3.80;;
28483;SDS011;15704;48.834;8.736;2024-03-08T03:55:16;7.30;;;4.30;;
28483;SDS011;15704;48.834;8.736;2024-03-08T03:57:44;6.07;;;4.85;;
28483;SDS011;15704;48.834;8.736;2024-03-08T04:00:12;5.40;;;4.30;;
28483;SDS011;15704;48.834;8.736;2024-03-08T04:02:39;6.10;;;4.50;;
28483;SDS011;15704;48.834;8.736;2024-03-08T04:05:07;5.50;;;4.47;;
28483;SDS011;15704;48.834;8.736;2024-03-08T04:07:35;4.85;;;3.65;;
28483;SDS011;15704;48.834;8.736;2024-03-08T04:10:03;5.35;;;3.90;;
28483;SDS011;15704;48.834;8.736;2024-03-08T04:12:32;5.60;;;4.45;;
28483;SDS011;15704;48.834;8.736;2024-03-08T04:15:01;5.00;;;3.75;;
28483;SDS011;15704;48.834;8.736;2024-03-08T04:17:28;4.55;;;3.95;;
28483;SDS011;15704;48.834;8.736;2024-03-08T04:19:55;4.95;;;3.88;;
28483;SDS011;15704;48.834;8.736;2024-03-08T04:22:23;5.50;;;4.25;;
28483;SDS011;15704;48.834;8.736;2024-03-08T04:24:50;6.55;;;4.57;;
28483;SDS011;15704;48.834;8.736;2024-03-08T04:27:17;4.70;;;3.90;;
28483;SDS011;15704;48.834;8.736;2024-03-08T04:29:43;5.35;;;4.03;;
28483;SDS011;15704;48.834;8.736;2024-03-08T04:32:10;5.50;;;4.50;;
28483;SDS011;15704;48.834;8.736;2024-03-08T04:34:39;5.70;;;4.38;;
28483;SDS011;15704;48.834;8.736;2024-03-08T04:37:11;4.63;;;3.90;;
28483;SDS011;15704;48.834;8.736;2024-03-08T04:39:39;6.03;;;4.57;;
28483;SDS011;15704;48.834;8.736;2024-03-08T04:42:06;5.45;;;4.03;;
28483;SDS011;15704;48.834;8.736;2024-03-08T04:44:37;5.15;;;4.22;;
28483;SDS011;15704;48.834;8.736;2024-03-08T04:47:04;5.13;;;4.15;;
28483;SDS011;15704;48.834;8.736;2024-03-08T04:49:34;4.68;;;4.10;;
28483;SDS011;15704;48.834;8.736;2024-03-08T04:52:03;4.80;;;3.60;;
28483;SDS011;15704;48.834;8.736;2024-03-08T04:54:30;5.40;;;4.10;;
28483;SDS011;15704;48.834;8.736;2024-03-08T04:56:57;4.78;;;3.70;;
28483;SDS011;15704;48.834;8.736;2024-03-08T04:59:26;5.72;;;4.30;;
28483;SDS011;15704;48.834;8.736;2024-03-08T05:01:54;4.68;;;4.10;;
28483;SDS011;15704;48.834;8.736;2024-03-08T05:04:21;6.03;;;4.35;;
28483;SDS011;15704;48.834;8.736;2024-03-08T05:06:48;4.97;;;4.07;;
28483;SDS011;15704;48.834;8.736;2024-03-08T05:09:15;7.43;;;4.70;;
28483;SDS011;15704;48.834;8.736;2024-03-08T05:11:43;6.43;;;4.20;;
28483;SDS011;15704;48.834;8.736;2024-03-08T05:14:10;5.18;;;4.20;;
28483;SDS011;15704;48.834;8.736;2024-03-08T05:16:43;4.90;;;3.78;;
28483;SDS011;15704;48.834;8.736;2024-03-08T05:19:10;5.90;;;4.05;;
28483;SDS011;15704;48.834;8.736;2024-03-08T05:21:36;5.18;;;3.78;;
28483;SDS011;15704;48.834;8.736;2024-03-08T05:24:03;5.85;;;4.10;;
28483;SDS011;15704;48.834;8.736;2024-03-08T05:26:31;5.72;;;4.07;;
28483;SDS011;15704;48.834;8.736;2024-03-08T05:28:59;5.68;;;3.75;;
28483;SDS011;15704;48.834;8.736;2024-03-08T05:31:26;5.78;;;3.80;;
28483;SDS011;15704;48.834;8.736;2024-03-08T05:33:54;4.85;;;4.05;;
28483;SDS011;15704;48.834;8.736;2024-03-08T05:36:21;4.75;;;4.13;;
28483;SDS011;15704;48.834;8.736;2024-03-08T05:38:48;4.70;;;3.95;;
28483;SDS011;15704;48.834;8.736;2024-03-08T05:41:16;5.20;;;4.07;;
28483;SDS011;15704;48.834;8.736;2024-03-08T05:43:44;5.50;;;3.95;;
28483;SDS011;15704;48.834;8.736;2024-03-08T05:46:11;6.05;;;4.43;;
28483;SDS011;15704;48.834;8.736;2024-03-08T05:48:41;5.60;;;3.75;;
28483;SDS011;15704;48.834;8.736;2024-03-08T05:51:08;4.13;;;3.63;;
28483;SDS011;15704;48.834;8.736;2024-03-08T05:53:35;5.05;;;4.00;;
28483;SDS011;15704;48.834;8.736;2024-03-08T05:56:01;5.85;;;4.15;;
28483;SDS011;15704;48.834;8.736;2024-03-08T05:58:29;5.43;;;3.80;;
28483;SDS011;15704;48.834;8.736;2024-03-08T06:00:56;5.03;;;4.22;;
28483;SDS011;15704;48.834;8.736;2024-03-08T06:03:23;5.38;;;4.10;;
28483;SDS011;15704;48.834;8.736;2024-03-08T06:05:50;6.15;;;4.47;;
28483;SDS011;15704;48.834;8.736;2024-03-08T06:08:17;4.72;;;3.92;;
28483;SDS011;15704;48.834;8.736;2024-03-08T06:10:45;5.22;;;3.95;;
28483;SDS011;15704;48.834;8.736;2024-03-08T06:13:14;5.10;;;4.13;;
28483;SDS011;15704;48.834;8.736;2024-03-08T06:15:41;5.72;;;3.90;;
28483;SDS011;15704;48.834;8.736;2024-03-08T06:18:08;5.70;;;4.03;;
28483;SDS011;15704;48.834;8.736;2024-03-08T06:20:38;6.22;;;4.25;;
28483;SDS011;15704;48.834;8.736;2024-03-08T06:23:04;4.60;;;3.67;;
28483;SDS011;15704;48.834;8.736;2024-03-08T06:25:31;4.85;;;3.70;;
28483;SDS011;15704;48.834;8.736;2024-03-08T06:27:58;5.15;;;3.90;;
28483;SDS011;15704;48.834;8.736;2024-03-08T06:30:25;4.43;;;3.78;;
28483;SDS011;15704;48.834;8.736;2024-03-08T06:32:52;4.90;;;3.80;;
28483;SDS011;15704;48.834;8.736;2024-03-08T06:35:19;5.07;;;3.58;;
28483;SDS011;15704;48.834;8.736;2024-03-08T06:37:46;4.30;;;3.78;;
28483;SDS011;15704;48.834;8.736;2024-03-08T06:40:13;5.55;;;4.43;;
28483;SDS011;15704;48.834;8.736;2024-03-08T06:42:40;4.38;;;3.60;;
28483;SDS011;15704;48.834;8.736;2024-03-08T06:45:08;5.35;;;4.60;;
28483;SDS011;15704;48.834;8.736;2024-03-08T06:47:36;4.75;;;3.90;;
28483;SDS011;15704;48.834;8.736;2024-03-08T06:50:03;4.60;;;3.88;;
28483;SDS011;15704;48.834;8.736;2024-03-08T06:52:31;5.78;;;4.18;;
28483;SDS011;15704;48.834;8.736;2024-03-08T06:54:59;4.70;;;3.70;;
28483;SDS011;15704;48.834;8.736;2024-03-08T06:57:28;5.05;;;4.05;;
28483;SDS011;15704;48.834;8.736;2024-03-08T06:59:55;5.18;;;4.10;;
28483;SDS011;15704;48.834;8.736;2024-03-08T07:02:23;5.05;;;3.90;;
28483;SDS011;15704;48.834;8.736;2024-03-08T07:04:53;4.60;;;3.65;;
28483;SDS011;15704;48.834;8.736;2024-03-08T07:07:20;4.40;;;3.60;;
28483;SDS011;15704;48.834;8.736;2024-03-08T07:09:47;5.07;;;3.90;;
28483;SDS011;15704;48.834;8.736;2024-03-08T07:12:15;5.60;;;3.95;;
28483;SDS011;15704;48.834;8.736;2024-03-08T07:14:43;4.53;;;3.33;;
28483;SDS011;15704;48.834;8.736;2024-03-08T07:17:12;5.32;;;4.07;;
28483;SDS011;15704;48.834;8.736;2024-03-08T07:19:39;5.25;;;4.07;;
28483;SDS011;15704;48.834;8.736;2024-03-08T07:22:05;5.88;;;4.45;;
28483;SDS011;15704;48.834;8.736;2024-03-08T07:24:35;5.90;;;4.55;;
28483;SDS011;15704;48.834;8.736;2024-03-08T07:27:20;5.30;;;4.05;;
28483;SDS011;15704;48.834;8.736;2024-03-08T07:29:47;4.90;;;3.80;;
28483;SDS011;15704;48.834;8.736;2024-03-08T07:32:14;5.05;;;3.83;;
28483;SDS011;15704;48.834;8.736;2024-03-08T07:34:47;5.53;;;4.20;;
28483;SDS011;15704;48.834;8.736;2024-03-08T07:37:17;5.25;;;3.90;;
28483;SDS011;15704;48.834;8.736;2024-03-08T07:39:45;6.20;;;4.10;;
28483;SDS011;15704;48.834;8.736;2024-03-08T07:42:12;5.30;;;3.80;;
28483;SDS011;15704;48.834;8.736;2024-03-08T07:44:39;4.90;;;4.10;;
28483;SDS011;15704;48.834;8.736;2024-03-08T07:47:06;4.53;;;3.70;;
28483;SDS011;15704;48.834;8.736;2024-03-08T07:49:36;5.53;;;4.13;;
28483;SDS011;15704;48.834;8.736;2024-03-08T07:52:05;6.00;;;4.05;;
28483;SDS011;15704;48.834;8.736;2024-03-08T07:54:33;5.18;;;4.40;;
28483;SDS011;15704;48.834;8.736;2024-03-08T07:57:03;5.53;;;3.70;;
28483;SDS011;15704;48.834;8.736;2024-03-08T07:59:30;4.53;;;3.65;;
28483;SDS011;15704;48.834;8.736;2024-03-08T08:01:57;6.72;;;4.00;;
28483;SDS011;15704;48.834;8.736;2024-03-08T08:04:26;5.03;;;3.65;;
28483;SDS011;15704;48.834;8.736;2024-03-08T08:06:53;5.35;;;3.78;;
28483;SDS011;15704;48.834;8.736;2024-03-08T08:09:21;5.15;;;4.20;;
28483;SDS011;15704;48.834;8.736;2024-03-08T08:12:01;5.18;;;3.95;;
28483;SDS011;15704;48.834;8.736;2024-03-08T08:14:30;4.70;;;3.53;;
28483;SDS011;15704;48.834;8.736;2024-03-08T08:16:57;4.32;;;3.60;;
28483;SDS011;15704;48.834;8.736;2024-03-08T08:19:27;5.18;;;3.40;;
28483;SDS011;15704;48.834;8.736;2024-03-08T08:21:54;4.25;;;3.58;;
28483;SDS011;15704;48.834;8.736;2024-03-08T08:24:20;4.60;;;3.80;;
28483;SDS011;15704;48.834;8.736;2024-03-08T08:26:48;5.43;;;4.07;;
28483;SDS011;15704;48.834;8.736;2024-03-08T08:29:15;4.35;;;3.75;;
28483;SDS011;15704;48.834;8.736;2024-03-08T08:31:42;4.93;;;3.63;;
28483;SDS011;15704;48.834;8.736;2024-03-08T08:34:09;4.57;;;3.55;;
28483;SDS011;15704;48.834;8.736;2024-03-08T08:36:37;4.20;;;3.42;;
28483;SDS011;15704;48.834;8.736;2024-03-08T08:39:05;4.72;;;3.70;;
28483;SDS011;15704;48.834;8.736;2024-03-08T08:41:38;4.15;;;3.63;;
28483;SDS011;15704;48.834;8.736;2024-03-08T08:44:07;4.82;;;3.60;;
28483;SDS011;15704;48.834;8.736;2024-03-08T08:46:42;4.15;;;3.42;;
28483;SDS011;15704;48.834;8.736;2024-03-08T08:49:09;3.50;;;3.20;;
28483;SDS011;15704;48.834;8.736;2024-03-08T08:51:37;5.35;;;3.80;;
28483;SDS011;15704;48.834;8.736;2024-03-08T08:54:05;5.10;;;4.05;;
28483;SDS011;15704;48.834;8.736;2024-03-08T08:56:36;6.00;;;3.75;;
28483;SDS011;15704;48.834;8.736;2024-03-08T08:59:03;5.55;;;3.75;;
28483;SDS011;15704;48.834;8.736;2024-03-08T09:01:31;4.80;;;3.80;;
28483;SDS011;15704;48.834;8.736;2024-03-08T09:03:58;5.38;;;4.07;;
28483;SDS011;15704;48.834;8.736;2024-03-08T09:06:24;4.75;;;3.88;;
28483;SDS011;15704;48.834;8.736;2024-03-08T09:08:52;5.40;;;4.00;;
28483;SDS011;15704;48.834;8.736;2024-03-08T09:11:19;4.45;;;3.75;;
28483;SDS011;15704;48.834;8.736;2024-03-08T09:13:46;5.22;;;3.97;;
28483;SDS011;15704;48.834;8.736;2024-03-08T09:16:13;5.32;;;4.30;;
28483;SDS011;15704;48.834;8.736;2024-03-08T09:18:40;4.43;;;3.75;;
28483;SDS011;15704;48.834;8.736;2024-03-08T09:21:07;4.95;;;3.75;;
28483;SDS011;15704;48.834;8.736;2024-03-08T09:23:39;4.80;;;3.95;;
28483;SDS011;15704;48.834;8.736;2024-03-08T09:26:07;6.00;;;4.20;;
28483;SDS011;15704;48.834;8.736;2024-03-08T09:28:48;4.63;;;3.65;;
28483;SDS011;15704;48.834;8.736;2024-03-08T09:31:14;5.82;;;4.10;;
28483;SDS011;15704;48.834;8.736;2024-03-08T09:33:42;4.63;;;3.60;;
28483;SDS011;15704;48.834;8.736;2024-03-08T09:36:08;4.70;;;3.70;;
28483;SDS011;15704;48.834;8.736;2024-03-08T09:38:35;4.45;;;3.70;;
28483;SDS011;15704;48.834;8.736;2024-03-08T09:41:02;5.05;;;3.70;;
28483;SDS011;15704;48.834;8.736;2024-03-08T09:43:30;5.93;;;3.65;;
28483;SDS011;15704;48.834;8.736;2024-03-08T09:45:57;5.20;;;3.60;;
28483;SDS011;15704;48.834;8.736;2024-03-08T09:48:25;4.50;;;3.78;;
28483;SDS011;15704;48.834;8.736;2024-03-08T09:50:52;6.03;;;4.28;;
28483;SDS011;15704;48.834;8.736;2024-03-08T09:53:20;6.13;;;4.57;;
28483;SDS011;15704;48.834;8.736;2024-03-08T09:55:48;4.63;;;3.45;;
28483;SDS011;15704;48.834;8.736;2024-03-08T09:58:16;4.97;;;3.92;;
28483;SDS011;15704;48.834;8.736;2024-03-08T10:00:53;4.60;;;3.60;;
28483;SDS011;15704;48.834;8.736;2024-03-08T10:03:23;5.68;;;4.15;;
28483;SDS011;15704;48.834;8.736;2024-03-08T10:05:53;5.35;;;4.05;;
28483;SDS011;15704;48.834;8.736;2024-03-08T10:08:22;4.75;;;3.90;;
28483;SDS011;15704;48.834;8.736;2024-03-08T10:10:50;4.75;;;3.55;;
28483;SDS011;15704;48.834;8.736;2024-03-08T10:13:17;5.47;;;4.05;;
28483;SDS011;15704;48.834;8.736;2024-03-08T10:15:46;5.15;;;4.00;;
28483;SDS011;15704;48.834;8.736;2024-03-08T10:18:13;5.03;;;3.72;;
28483;SDS011;15704;48.834;8.736;2024-03-08T10:20:39;4.22;;;3.45;;
28483;SDS011;15704;48.834;8.736;2024-03-08T10:23:07;4.03;;;3.30;;
28483;SDS011;15704;48.834;8.736;2024-03-08T10:25:37;6.43;;;3.60;;
28483;SDS011;15704;48.834;8.736;2024-03-08T10:28:05;5.22;;;3.65;;
28483;SDS011;15704;48.834;8.736;2024-03-08T10:30:32;5.20;;;3.53;;
28483;SDS011;15704;48.834;8.736;2024-03-08T10:32:59;6.43;;;4.13;;
28483;SDS011;15704;48.834;8.736;2024-03-08T10:35:26;4.78;;;4.03;;
28483;SDS011;15704;48.834;8.736;2024-03-08T10:37:53;5.30;;;3.72;;
28483;SDS011;15704;48.834;8.736;2024-03-08T10:40:28;5.35;;;3.80;;
28483;SDS011;15704;48.834;8.736;2024-03-08T10:42:56;4.88;;;3.85;;
28483;SDS011;15704;48.834;8.736;2024-03-08T10:45:35;4.93;;;3.92;;
28483;SDS011;15704;48.834;8.736;2024-03-08T10:48:26;4.95;;;3.90;;
28483;SDS011;15704;48.834;8.736;2024-03-08T10:51:03;5.72;;;4.28;;
28483;SDS011;15704;48.834;8.736;2024-03-08T10:53:31;6.00;;;4.43;;
28483;SDS011;15704;48.834;8.736;2024-03-08T10:56:00;5.13;;;4.13;;
28483;SDS011;15704;48.834;8.736;2024-03-08T10:58:28;6.95;;;4.20;;
28483;SDS011;15704;48.834;8.736;2024-03-08T11:00:56;6.32;;;4.35;;
28483;SDS011;15704;48.834;8.736;2024-03-08T11:06:29;7.53;;;4.35;;
28483;SDS011;15704;48.834;8.736;2024-03-08T11:08:58;5.22;;;4.22;;
28483;SDS011;15704;48.834;8.736;2024-03-08T11:11:29;4.45;;;3.80;;
28483;SDS011;15704;48.834;8.736;2024-03-08T11:14:00;5.00;;;3.80;;
28483;SDS011;15704;48.834;8.736;2024-03-08T11:19:04;5.60;;;4.18;;
28483;SDS011;15704;48.834;8.736;2024-03-08T11:22:00;5.75;;;3.72;;
28483;SDS011;15704;48.834;8.736;2024-03-08T11:24:36;4.47;;;3.40;;
28483;SDS011;15704;48.834;8.736;2024-03-08T11:27:07;4.93;;;3.65;;
28483;SDS011;15704;48.834;8.736;2024-03-08T11:29:36;5.63;;;4.07;;
28483;SDS011;15704;48.834;8.736;2024-03-08T11:32:09;7.35;;;4.07;;
28483;SDS011;15704;48.834;8.736;2024-03-08T11:34:42;5.18;;;3.95;;
28483;SDS011;15704;48.834;8.736;2024-03-08T11:37:12;5.85;;;4.30;;
28483;SDS011;15704;48.834;8.736;2024-03-08T11:40:02;4.85;;;3.90;;
28483;SDS011;15704;48.834;8.736;2024-03-08T11:42:35;5.55;;;4.13;;
28483;SDS011;15704;48.834;8.736;2024-03-08T11:45:07;4.95;;;3.83;;
28483;SDS011;15704;48.834;8.736;2024-03-08T11:47:37;4.93;;;3.58;;
28483;SDS011;15704;48.834;8.736;2024-03-08T11:50:07;9.15;;;3.72;;
28483;SDS011;15704;48.834;8.736;2024-03-08T11:52:37;5.38;;;3.45;;
28483;SDS011;15704;48.834;8.736;2024-03-08T11:55:05;4.72;;;3.40;;
28483;SDS011;15704;48.834;8.736;2024-03-08T11:57:32;3.63;;;3.28;;
28483;SDS011;15704;48.834;8.736;2024-03-08T11:59:59;3.83;;;3.10;;
28483;SDS011;15704;48.834;8.736;2024-03-08T12:02:33;5.50;;;3.60;;
28483;SDS011;15704;48.834;8.736;2024-03-08T12:05:04;4.55;;;3.47;;
28483;SDS011;15704;48.834;8.736;2024-03-08T12:07:42;4.20;;;3.55;;
28483;SDS011;15704;48.834;8.736;2024-03-08T12:10:22;4.43;;;3.50;;
28483;SDS011;15704;48.834;8.736;2024-03-08T12:12:49;4.30;;;3.40;;
28483;SDS011;15704;48.834;8.736;2024-03-08T12:15:20;4.22;;;3.20;;
28483;SDS011;15704;48.834;8.736;2024-03-08T12:17:52;4.80;;;3.33;;
28483;SDS011;15704;48.834;8.736;2024-03-08T12:20:22;4.18;;;3.58;;
28483;SDS011;15704;48.834;8.736;2024-03-08T12:22:56;4.95;;;3.55;;
28483;SDS011;15704;48.834;8.736;2024-03-08T12:25:27;5.30;;;3.60;;
28483;SDS011;15704;48.834;8.736;2024-03-08T12:28:07;4.32;;;3.50;;
28483;SDS011;15704;48.834;8.736;2024-03-08T12:30:47;5.28;;;3.78;;
28483;SDS011;15704;48.834;8.736;2024-03-08T12:33:15;4.35;;;3.10;;
28483;SDS011;15704;48.834;8.736;2024-03-08T12:35:50;5.25;;;3.40;;
28483;SDS011;15704;48.834;8.736;2024-03-08T12:38:21;4.85;;;3.60;;
28483;SDS011;15704;48.834;8.736;2024-03-08T12:40:57;5.77;;;3.20;;
28483;SDS011;15704;48.834;8.736;2024-03-08T12:43:25;5.03;;;3.25;;
28483;SDS011;15704;48.834;8.736;2024-03-08T12:45:56;4.38;;;3.38;;
28483;SDS011;15704;48.834;8.736;2024-03-08T12:48:23;3.50;;;2.90;;
28483;SDS011;15704;48.834;8.736;2024-03-08T12:50:51;3.75;;;3.00;;
28483;SDS011;15704;48.834;8.736;2024-03-08T12:53:22;5.85;;;3.00;;
28483;SDS011;15704;48.834;8.736;2024-03-08T12:55:50;8.65;;;3.45;;
28483;SDS011;15704;48.834;8.736;2024-03-08T12:58:18;5.18;;;3.60;;
28483;SDS011;15704;48.834;8.736;2024-03-08T13:00:46;6.65;;;3.00;;
28483;SDS011;15704;48.834;8.736;2024-03-08T13:03:16;5.72;;;3.95;;
28483;SDS011;15704;48.834;8.736;2024-03-08T13:05:43;4.78;;;3.20;;
28483;SDS011;15704;48.834;8.736;2024-03-08T13:08:10;4.30;;;3.15;;
28483;SDS011;15704;48.834;8.736;2024-03-08T13:10:39;3.88;;;3.45;;
28483;SDS011;15704;48.834;8.736;2024-03-08T13:13:10;6.05;;;3.42;;
28483;SDS011;15704;48.834;8.736;2024-03-08T13:15:40;5.22;;;3.72;;
28483;SDS011;15704;48.834;8.736;2024-03-08T13:18:07;4.47;;;3.75;;
28483;SDS011;15704;48.834;8.736;2024-03-08T13:20:35;6.07;;;4.30;;
28483;SDS011;15704;48.834;8.736;2024-03-08T13:23:13;4.63;;;3.45;;
28483;SDS011;15704;48.834;8.736;2024-03-08T13:25:40;4.95;;;3.17;;
28483;SDS011;15704;48.834;8.736;2024-03-08T13:28:07;4.07;;;3.10;;
28483;SDS011;15704;48.834;8.736;2024-03-08T13:30:35;5.53;;;3.90;;
28483;SDS011;15704;48.834;8.736;2024-03-08T13:33:02;4.47;;;3.45;;
28483;SDS011;15704;48.834;8.736;2024-03-08T13:35:33;4.43;;;3.40;;
28483;SDS011;15704;48.834;8.736;2024-03-08T13:38:01;4.20;;;3.33;;
28483;SDS011;15704;48.834;8.736;2024-03-08T13:40:30;3.72;;;2.95;;
28483;SDS011;15704;48.834;8.736;2024-03-08T13:42:57;4.68;;;3.50;;
28483;SDS011;15704;48.834;8.736;2024-03-08T13:45:27;4.25;;;3.40;;
28483;SDS011;15704;48.834;8.736;2024-03-08T13:47:54;5.65;;;3.80;;
28483;SDS011;15704;48.834;8.736;2024-03-08T13:50:21;7.28;;;4.15;;
28483;SDS011;15704;48.834;8.736;2024-03-08T13:52:49;4.68;;;3.30;;
28483;SDS011;15704;48.834;8.736;2024-03-08T13:55:23;3.95;;;3.25;;
28483;SDS011;15704;48.834;8.736;2024-03-08T13:57:54;4.43;;;3.60;;
28483;SDS011;15704;48.834;8.736;2024-03-08T14:00:21;4.57;;;3.67;;
28483;SDS011;15704;48.834;8.736;2024-03-08T14:02:49;4.85;;;3.80;;
28483;SDS011;15704;48.834;8.736;2024-03-08T14:05:16;4.28;;;3.10;;
28483;SDS011;15704;48.834;8.736;2024-03-08T14:07:46;4.95;;;3.60;;
28483;SDS011;15704;48.834;8.736;2024-03-08T14:10:16;4.65;;;3.33;;
28483;SDS011;15704;48.834;8.736;2024-03-08T14:12:49;4.65;;;3.50;;
28483;SDS011;15704;48.834;8.736;2024-03-08T14:15:17;3.85;;;3.00;;
28483;SDS011;15704;48.834;8.736;2024-03-08T14:17:44;4.65;;;3.17;;
28483;SDS011;15704;48.834;8.736;2024-03-08T14:20:13;4.65;;;3.30;;
28483;SDS011;15704;48.834;8.736;2024-03-08T14:22:40;3.75;;;2.97;;
28483;SDS011;15704;48.834;8.736;2024-03-08T14:25:07;4.28;;;3.03;;
28483;SDS011;15704;48.834;8.736;2024-03-08T14:27:44;3.70;;;3.05;;
28483;SDS011;15704;48.834;8.736;2024-03-08T14:30:12;3.90;;;3.20;;
28483;SDS011;15704;48.834;8.736;2024-03-08T14:32:44;3.17;;;2.83;;
28483;SDS011;15704;48.834;8.736;2024-03-08T14:35:11;5.07;;;3.10;;
28483;SDS011;15704;48.834;8.736;2024-03-08T14:37:37;4.82;;;3.15;;
28483;SDS011;15704;48.834;8.736;2024-03-08T14:40:05;3.25;;;2.65;;
28483;SDS011;15704;48.834;8.736;2024-03-08T14:42:32;3.30;;;2.67;;
28483;SDS011;15704;48.834;8.736;2024-03-08T14:44:59;4.03;;;3.22;;
28483;SDS011;15704;48.834;8.736;2024-03-08T14:47:26;3.65;;;2.83;;
28483;SDS011;15704;48.834;8.736;2024-03-08T14:49:54;6.13;;;3.20;;
28483;SDS011;15704;48.834;8.736;2024-03-08T14:52:22;4.38;;;3.40;;
28483;SDS011;15704;48.834;8.736;2024-03-08T14:54:55;4.43;;;2.92;;
28483;SDS011;15704;48.834;8.736;2024-03-08T14:57:22;4.25;;;2.78;;
28483;SDS011;15704;48.834;8.736;2024-03-08T14:59:49;3.28;;;2.97;;
28483;SDS011;15704;48.834;8.736;2024-03-08T15:02:16;3.47;;;2.95;;